EGNM/LBA METAR and TAF weather

Enter ICAO airport designator
Station Type Date Time Source
EGNM METAR 2019/10/16 20:20 UTC NOAA

EGNM 162020Z 27005KT CAVOK 07/04 Q1003


Station Type Date Time Source
EGNM Decoded METAR 2019/10/16 20:20 UTC NOAA

Leeds And Bradford, United Kingdom (EGNM) 53-52N 001-39W
Oct 16, 2019 - 04:20 PM EDT / 2019.10.16 2020 UTC
Wind: from the W (270 degrees) at 6 MPH (5 KT):0
Visibility: greater than 7 mile(s):0
Temperature: 44 F (7 C)
Dew Point: 39 F (4 C)
Relative Humidity: 81%
Pressure (altimeter): 29.62 in. Hg (1003 hPa)
ob: EGNM 162020Z 27005KT CAVOK 07/04 Q1003
cycle: 20

Station Type Date Time Source
EGNM TAF 2019/10/16 18:09 UTC NOAA

TAF TAF EGNM 161657Z 1618/1718 20007KT 9999 SCT030 PROB30 1620/1703 7000
TEMPO 1703/1709 3000 BR PROB30
TEMPO 1705/1708 0800 FG
TEMPO 1714/1718 7000 SHRA PROB30
TEMPO 1715/1718 3000 +SHRA BKN014

Example: see airport list